createdAt,value
2023-05-14T00:00:26.942Z,8.88
2023-05-14T00:02:32.307Z,8.85
2023-05-14T00:04:22.986Z,8.86
2023-05-14T00:06:13.323Z,8.85
2023-05-14T00:08:03.885Z,8.86
2023-05-14T00:09:53.647Z,8.84
2023-05-14T00:11:43.755Z,8.84
2023-05-14T00:13:35.020Z,8.83
2023-05-14T00:15:25.551Z,8.82
2023-05-14T00:17:15.648Z,8.81
2023-05-14T00:19:05.933Z,8.79
2023-05-14T00:20:55.993Z,8.78
2023-05-14T00:22:45.678Z,8.76
2023-05-14T00:24:36.385Z,8.74
2023-05-14T00:26:26.791Z,8.72
2023-05-14T00:28:16.956Z,8.70
2023-05-14T00:30:07.346Z,8.69
2023-05-14T00:31:57.628Z,8.67
2023-05-14T00:33:47.665Z,8.66
2023-05-14T00:35:37.773Z,8.65
2023-05-14T00:37:27.587Z,8.64
2023-05-14T00:39:17.316Z,8.62
2023-05-14T00:41:07.416Z,8.62
2023-05-14T00:42:57.203Z,8.63
2023-05-14T00:44:47.159Z,8.65
2023-05-14T00:46:37.756Z,8.67
2023-05-14T00:48:28.771Z,8.68
2023-05-14T00:50:19.423Z,8.68
2023-05-14T00:52:10.525Z,8.70
2023-05-14T00:54:00.933Z,8.72
2023-05-14T00:55:51.674Z,8.75
2023-05-14T00:57:42.113Z,8.78
2023-05-14T00:59:32.359Z,8.79
2023-05-14T01:01:22.755Z,8.82
2023-05-14T01:03:13.050Z,8.84
2023-05-14T01:05:03.316Z,8.88
2023-05-14T01:07:22.625Z,8.90
2023-05-14T01:09:23.871Z,8.92
2023-05-14T01:11:22.071Z,8.97
2023-05-14T01:13:20.411Z,9.00
2023-05-14T01:15:12.252Z,9.03
2023-05-14T01:17:03.852Z,9.07
2023-05-14T01:18:56.247Z,9.09
2023-05-14T01:20:50.319Z,9.11
2023-05-14T01:22:40.373Z,9.12
2023-05-14T01:24:30.877Z,9.16
2023-05-14T01:26:21.248Z,9.18
2023-05-14T01:28:19.816Z,9.19
2023-05-14T01:30:21.668Z,9.21
2023-05-14T01:32:12.781Z,9.24
2023-05-14T01:34:04.665Z,9.26
2023-05-14T01:35:55.496Z,9.28
2023-05-14T01:37:46.827Z,9.28
2023-05-14T01:39:37.610Z,9.32
2023-05-14T01:41:29.096Z,9.34
2023-05-14T01:43:19.428Z,9.34
2023-05-14T01:45:09.942Z,9.34
2023-05-14T01:47:00.153Z,9.35
2023-05-14T01:48:50.705Z,9.35
2023-05-14T01:50:41.301Z,9.35
2023-05-14T01:52:31.359Z,9.36
2023-05-14T01:54:21.846Z,9.35
2023-05-14T01:56:12.168Z,9.34
2023-05-14T01:58:02.760Z,9.34
2023-05-14T01:59:52.729Z,9.33
2023-05-14T02:01:43.102Z,9.31
2023-05-14T02:03:33.392Z,9.30
2023-05-14T02:05:23.716Z,9.28
2023-05-14T02:07:14.217Z,9.26
2023-05-14T02:09:04.528Z,9.24
2023-05-14T02:12:32.651Z,9.23
2023-05-14T02:14:24.179Z,9.17
2023-05-14T02:16:15.912Z,9.16
2023-05-14T02:18:07.374Z,9.16
2023-05-14T02:19:58.890Z,9.15
2023-05-14T02:21:50.705Z,9.13
2023-05-14T02:23:43.165Z,9.11
2023-05-14T02:25:34.935Z,9.11
2023-05-14T02:27:26.385Z,9.08
2023-05-14T02:29:18.157Z,9.05
2023-05-14T02:31:10.019Z,9.03
2023-05-14T02:33:01.878Z,8.99
2023-05-14T02:34:53.500Z,8.96
2023-05-14T02:36:45.153Z,8.92
2023-05-14T02:38:36.931Z,8.89
2023-05-14T02:40:29.124Z,8.86
2023-05-14T02:42:20.960Z,8.85
2023-05-14T02:44:12.739Z,8.81
2023-05-14T02:46:04.652Z,8.78
2023-05-14T02:47:56.266Z,8.74
2023-05-14T02:49:47.706Z,8.71
2023-05-14T02:51:40.075Z,8.69
2023-05-14T02:53:31.579Z,8.66
2023-05-14T02:55:26.442Z,8.65
2023-05-14T02:57:18.330Z,8.62
2023-05-14T02:59:10.425Z,8.59
2023-05-14T03:01:03.132Z,8.56
2023-05-14T03:02:55.739Z,8.54
2023-05-14T03:04:48.383Z,8.52
2023-05-14T03:06:40.460Z,8.49
2023-05-14T03:08:32.103Z,8.45
2023-05-14T03:10:24.419Z,8.43
2023-05-14T03:12:16.262Z,8.40
2023-05-14T03:14:07.943Z,8.37
2023-05-14T03:15:59.373Z,8.36
2023-05-14T03:17:50.967Z,8.34
2023-05-14T03:19:42.820Z,8.34
2023-05-14T03:21:34.516Z,8.33
2023-05-14T03:23:26.238Z,8.33
2023-05-14T03:25:18.382Z,8.32
2023-05-14T03:27:09.866Z,8.31
2023-05-14T03:29:02.552Z,8.30
2023-05-14T03:30:54.732Z,8.28
2023-05-14T03:32:47.013Z,8.27
2023-05-14T03:34:38.873Z,8.26
2023-05-14T03:36:30.543Z,8.25
2023-05-14T03:38:22.216Z,8.22
2023-05-14T03:40:13.901Z,8.20
2023-05-14T03:42:05.881Z,8.18
2023-05-14T03:43:57.804Z,8.18
2023-05-14T03:45:52.748Z,8.18
2023-05-14T03:47:44.214Z,8.18
2023-05-14T03:49:36.676Z,8.12
2023-05-14T03:51:28.373Z,8.19
2023-05-14T03:53:20.193Z,8.20
2023-05-14T03:55:12.361Z,8.19
2023-05-14T03:57:04.485Z,8.17
2023-05-14T03:58:56.248Z,8.18
2023-05-14T04:00:48.841Z,8.22
2023-05-14T04:02:40.615Z,8.30
2023-05-14T04:04:32.697Z,8.39
2023-05-14T04:06:24.178Z,8.48
2023-05-14T04:08:16.268Z,8.59
2023-05-14T04:10:08.958Z,8.71
2023-05-14T04:12:01.098Z,8.82
2023-05-14T04:13:52.821Z,8.93
2023-05-14T04:15:44.222Z,9.06
2023-05-14T04:17:36.101Z,9.19
2023-05-14T04:19:27.551Z,9.37
2023-05-14T04:21:19.293Z,9.55
2023-05-14T04:23:10.981Z,9.72
2023-05-14T04:25:03.207Z,9.94
2023-05-14T04:26:55.076Z,10.14
2023-05-14T04:28:47.075Z,10.34
2023-05-14T04:30:39.366Z,10.54
2023-05-14T04:32:30.813Z,10.75
2023-05-14T04:34:23.017Z,10.95
2023-05-14T04:36:15.154Z,11.17
2023-05-14T04:38:06.986Z,11.33
2023-05-14T04:39:58.853Z,11.49
2023-05-14T04:41:50.345Z,11.63
2023-05-14T04:43:41.944Z,11.74
2023-05-14T04:45:34.262Z,11.83
2023-05-14T04:47:26.826Z,11.94
2023-05-14T04:49:18.448Z,12.06
2023-05-14T04:51:10.401Z,12.17
2023-05-14T04:53:02.009Z,12.28
2023-05-14T04:54:53.499Z,12.39
2023-05-14T04:56:45.760Z,12.52
2023-05-14T04:58:37.850Z,12.61
2023-05-14T05:00:30.684Z,12.67
2023-05-14T05:02:22.647Z,12.76
2023-05-14T05:04:14.586Z,12.85
2023-05-14T05:06:06.781Z,12.98
2023-05-14T05:07:58.709Z,13.10
2023-05-14T05:09:50.256Z,13.25
2023-05-14T05:11:42.223Z,13.39
2023-05-14T05:13:33.763Z,13.51
2023-05-14T05:15:26.561Z,13.65
2023-05-14T05:17:18.696Z,13.80
2023-05-14T05:19:10.484Z,13.92
2023-05-14T05:21:02.569Z,14.03
2023-05-14T05:22:54.440Z,14.14
2023-05-14T05:24:47.479Z,14.22
2023-05-14T05:26:40.354Z,14.32
2023-05-14T05:28:32.467Z,14.40
2023-05-14T05:30:24.836Z,14.46
2023-05-14T05:32:16.768Z,14.52
2023-05-14T05:34:08.883Z,14.52
2023-05-14T05:36:00.815Z,14.54
2023-05-14T05:37:52.535Z,14.63
2023-05-14T05:39:44.037Z,14.74
2023-05-14T05:41:35.972Z,14.88
2023-05-14T05:43:28.663Z,15.00
2023-05-14T05:45:20.631Z,15.13
2023-05-14T05:47:12.666Z,15.24
2023-05-14T05:49:04.401Z,15.37
2023-05-14T05:50:55.872Z,15.49
2023-05-14T05:52:48.103Z,15.62
2023-05-14T05:54:40.086Z,15.70
2023-05-14T05:56:32.107Z,15.72
2023-05-14T05:58:23.648Z,15.81
2023-05-14T06:00:17.071Z,15.89
2023-05-14T06:02:09.232Z,15.97
2023-05-14T06:04:01.207Z,15.96
2023-05-14T06:05:53.182Z,15.94
2023-05-14T06:07:45.032Z,15.92
2023-05-14T06:09:36.529Z,15.84
2023-05-14T06:11:28.680Z,15.79
2023-05-14T06:13:20.106Z,15.77
2023-05-14T06:15:12.649Z,15.68
2023-05-14T06:17:04.622Z,15.61
2023-05-14T06:18:56.731Z,15.54
2023-05-14T06:20:48.225Z,15.57
2023-05-14T06:22:40.034Z,15.55
2023-05-14T06:24:31.679Z,15.52
2023-05-14T06:26:23.549Z,15.53
2023-05-14T06:28:15.614Z,15.57
2023-05-14T06:30:08.530Z,15.57
2023-05-14T06:32:04.257Z,15.51
2023-05-14T06:33:55.772Z,15.60
2023-05-14T06:35:47.756Z,15.67
2023-05-14T06:37:39.647Z,15.72
2023-05-14T06:39:31.732Z,15.79
2023-05-14T06:41:23.288Z,15.86
2023-05-14T06:43:14.843Z,15.92
2023-05-14T06:45:07.115Z,16.00
2023-05-14T06:46:59.118Z,16.05
2023-05-14T06:48:50.861Z,16.09
2023-05-14T06:50:42.369Z,16.06
2023-05-14T06:52:34.344Z,16.08
2023-05-14T06:54:26.218Z,16.15
2023-05-14T06:56:18.277Z,16.34
2023-05-14T06:58:09.994Z,16.75
2023-05-14T07:00:03.440Z,17.15
2023-05-14T07:01:55.701Z,17.48
2023-05-14T07:03:47.292Z,17.89
2023-05-14T07:05:40.900Z,18.18
2023-05-14T07:07:32.788Z,18.55
2023-05-14T07:09:24.724Z,18.92
2023-05-14T07:11:16.479Z,19.21
2023-05-14T07:13:08.578Z,19.50
2023-05-14T07:15:00.140Z,19.70
2023-05-14T07:16:51.998Z,19.83
2023-05-14T07:18:45.724Z,20.02
2023-05-14T07:20:38.026Z,20.12
2023-05-14T07:22:29.414Z,20.41
2023-05-14T07:24:21.272Z,20.67
2023-05-14T07:26:13.306Z,20.76
2023-05-14T07:28:05.120Z,20.84
2023-05-14T07:29:57.009Z,20.94
2023-05-14T07:31:48.687Z,20.99
2023-05-14T07:33:40.477Z,20.96
2023-05-14T07:35:32.380Z,21.07
2023-05-14T07:37:26.326Z,21.10
2023-05-14T07:39:18.149Z,21.25
2023-05-14T07:41:11.883Z,21.53
2023-05-14T07:43:03.314Z,21.72
2023-05-14T07:44:54.622Z,21.82
2023-05-14T07:46:46.285Z,21.80
2023-05-14T07:48:38.176Z,21.79
2023-05-14T07:50:30.323Z,21.73
2023-05-14T07:52:22.996Z,21.78
2023-05-14T07:54:14.565Z,21.91
2023-05-14T07:56:06.277Z,22.07
2023-05-14T07:57:57.640Z,22.19
2023-05-14T07:59:49.129Z,22.28
2023-05-14T08:01:42.206Z,22.41
2023-05-14T08:03:34.329Z,22.52
2023-05-14T08:05:26.700Z,22.63
2023-05-14T08:07:17.978Z,22.81
2023-05-14T08:09:09.859Z,22.77
2023-05-14T08:11:01.226Z,22.74
2023-05-14T08:22:45.793Z,22.60
2023-05-14T08:24:37.524Z,22.83
2023-05-14T08:26:28.851Z,23.06
2023-05-14T08:28:21.022Z,23.22
2023-05-14T08:30:13.113Z,23.43
2023-05-14T08:32:15.610Z,23.58
2023-05-14T08:34:13.986Z,23.67
2023-05-14T08:36:07.212Z,23.66
2023-05-14T08:37:58.845Z,23.79
2023-05-14T08:39:50.670Z,23.94
2023-05-14T08:41:43.585Z,23.89
2023-05-14T08:43:50.287Z,24.03
2023-05-14T08:45:42.523Z,24.16
2023-05-14T08:47:34.349Z,24.25
2023-05-14T08:49:41.569Z,24.27
2023-05-14T08:51:33.607Z,24.15
2023-05-14T08:53:24.974Z,24.18
2023-05-14T08:55:16.641Z,24.28
2023-05-14T08:57:11.355Z,24.32
2023-05-14T08:59:02.965Z,24.56
2023-05-14T09:00:54.845Z,24.61
2023-05-14T09:04:46.362Z,24.79
2023-05-14T09:06:38.240Z,24.71
2023-05-14T09:08:29.885Z,24.64
2023-05-14T09:10:22.751Z,24.58
2023-05-14T09:12:14.576Z,24.60
2023-05-14T09:14:06.252Z,24.57
2023-05-14T09:15:58.904Z,24.65
2023-05-14T09:17:50.433Z,24.82
2023-05-14T09:19:43.549Z,25.01
2023-05-14T09:21:35.545Z,25.29
2023-05-14T09:23:27.296Z,25.47
2023-05-14T09:25:19.241Z,25.69
2023-05-14T09:27:18.412Z,26.02
2023-05-14T09:29:09.933Z,26.29
2023-05-14T09:31:02.755Z,26.40
2023-05-14T09:32:55.111Z,26.26
2023-05-14T09:34:46.735Z,26.22
2023-05-14T09:36:38.353Z,26.36
2023-05-14T09:38:33.806Z,26.30
2023-05-14T09:40:25.565Z,26.42
2023-05-14T09:42:17.103Z,26.50
2023-05-14T09:44:08.650Z,26.37
2023-05-14T09:46:00.189Z,26.33
2023-05-14T09:47:53.194Z,26.56
2023-05-14T09:49:48.844Z,26.68
2023-05-14T09:51:40.605Z,26.65
2023-05-14T09:53:33.554Z,26.06
2023-05-14T09:55:26.356Z,25.59
2023-05-14T09:57:17.728Z,25.28
2023-05-14T09:59:09.329Z,25.28
2023-05-14T10:01:01.971Z,25.55
2023-05-14T10:02:54.168Z,25.76
2023-05-14T10:04:46.882Z,26.06
2023-05-14T10:06:39.762Z,26.15
2023-05-14T10:08:35.290Z,26.35
2023-05-14T10:10:29.894Z,26.67
2023-05-14T10:12:22.727Z,26.53
2023-05-14T10:14:19.686Z,26.51
2023-05-14T10:16:20.362Z,26.56
2023-05-14T10:18:14.880Z,26.50
2023-05-14T10:20:09.399Z,26.42
2023-05-14T10:22:05.597Z,26.44
2023-05-14T10:23:58.021Z,26.53
2023-05-14T10:25:49.948Z,26.71
2023-05-14T10:27:41.590Z,26.90
2023-05-14T10:29:37.711Z,26.91
2023-05-14T11:11:26.382Z,27.52
2023-05-14T11:13:19.197Z,27.46
2023-05-14T11:15:12.662Z,27.39
2023-05-14T11:17:04.803Z,27.38
2023-05-14T19:09:56.993Z,16.79
2023-05-14T19:11:48.432Z,16.74
2023-05-14T19:13:40.154Z,16.71
2023-05-14T19:15:32.458Z,16.70
2023-05-14T19:17:24.913Z,16.68
2023-05-14T19:19:16.688Z,16.68
2023-05-14T19:21:08.504Z,16.67
2023-05-14T19:23:00.252Z,16.66
2023-05-14T19:24:51.730Z,16.64
2023-05-14T19:26:43.677Z,16.61
2023-05-14T19:28:37.966Z,16.58
2023-05-14T19:30:29.476Z,16.55
2023-05-14T19:32:21.135Z,16.53
2023-05-14T19:34:13.001Z,16.51
2023-05-14T19:36:05.169Z,16.46
2023-05-14T19:37:56.915Z,16.40
2023-05-14T19:39:48.590Z,16.32
2023-05-14T19:41:40.718Z,16.24
2023-05-14T19:43:32.267Z,16.17
2023-05-14T19:45:24.276Z,16.15
2023-05-14T19:47:16.105Z,16.13
2023-05-14T19:49:07.918Z,16.09
2023-05-14T19:50:59.776Z,16.04
2023-05-14T19:52:51.847Z,16.00
2023-05-14T19:54:43.362Z,15.98
2023-05-14T19:56:35.528Z,15.98
2023-05-14T19:58:27.253Z,15.95
2023-05-14T20:00:18.696Z,15.95
2023-05-14T20:02:12.952Z,15.94
2023-05-14T20:04:04.878Z,15.90
2023-05-14T20:05:56.305Z,15.86
2023-05-14T20:07:48.999Z,15.78
2023-05-14T20:09:40.700Z,15.73
2023-05-14T20:11:32.645Z,15.71
2023-05-14T20:13:25.292Z,15.67
2023-05-14T20:15:17.037Z,15.61
2023-05-14T20:17:08.879Z,15.60
2023-05-14T20:19:00.549Z,15.57
2023-05-14T20:20:52.430Z,15.56
2023-05-14T20:22:44.113Z,15.54
2023-05-14T20:24:35.646Z,15.51
2023-05-14T20:26:27.125Z,15.49
2023-05-14T20:28:18.774Z,15.49
2023-05-14T20:30:10.442Z,15.47
2023-05-14T20:32:01.969Z,15.42
2023-05-14T20:33:53.480Z,15.40
2023-05-14T20:35:45.695Z,15.38
2023-05-14T20:37:38.052Z,15.36
2023-05-14T20:39:29.588Z,15.34
2023-05-14T20:41:22.389Z,15.32
2023-05-14T20:43:14.565Z,15.29
2023-05-14T20:45:07.080Z,15.27
2023-05-14T20:46:58.510Z,15.25
2023-05-14T20:48:51.899Z,15.21
2023-05-14T20:50:44.762Z,15.16
2023-05-14T20:52:36.489Z,15.14
2023-05-14T20:54:28.164Z,15.10
2023-05-14T20:56:19.766Z,15.06
2023-05-14T20:58:11.189Z,15.01
2023-05-14T21:00:08.106Z,14.94
2023-05-14T21:01:59.697Z,14.87
2023-05-14T21:03:51.730Z,14.85
2023-05-14T21:05:43.882Z,14.82
2023-05-14T21:07:37.627Z,14.79
2023-05-14T21:09:32.722Z,14.77
2023-05-14T21:11:24.173Z,14.76
2023-05-14T21:13:15.744Z,14.76
2023-05-14T21:15:08.184Z,14.77
2023-05-14T21:16:59.962Z,14.79
2023-05-14T21:18:51.537Z,14.80
2023-05-14T21:20:43.238Z,14.78
2023-05-14T21:22:34.861Z,14.76
2023-05-14T21:24:26.923Z,14.75
2023-05-14T21:26:18.428Z,14.73
2023-05-14T21:28:10.470Z,14.71
2023-05-14T21:30:01.945Z,14.70
2023-05-14T21:31:53.867Z,14.69
2023-05-14T21:33:45.147Z,14.68
2023-05-14T21:35:37.043Z,14.66
2023-05-14T21:37:28.980Z,14.66
2023-05-14T21:39:20.597Z,14.65
2023-05-14T21:41:12.023Z,14.63
2023-05-14T21:43:03.861Z,14.61
2023-05-14T21:44:56.034Z,14.58
2023-05-14T21:46:47.915Z,14.51
2023-05-14T21:48:39.737Z,14.40
2023-05-14T21:50:31.281Z,14.32
2023-05-14T21:52:23.046Z,14.25
2023-05-14T21:54:14.822Z,14.19
2023-05-14T21:56:07.122Z,14.10
2023-05-14T21:57:58.814Z,14.04
2023-05-14T21:59:50.341Z,13.98
2023-05-14T22:02:00.712Z,13.95
2023-05-14T22:03:55.159Z,13.94
2023-05-14T22:05:49.287Z,13.95
2023-05-14T22:07:40.921Z,13.93
2023-05-14T22:09:32.849Z,13.93
2023-05-14T22:11:24.190Z,13.91
2023-05-14T22:13:15.843Z,13.93
2023-05-14T22:15:08.637Z,13.95
2023-05-14T22:17:00.229Z,13.96
2023-05-14T22:18:52.551Z,13.96
2023-05-14T22:20:44.306Z,13.96
2023-05-14T22:22:36.573Z,13.96
2023-05-14T22:24:28.156Z,13.97
2023-05-14T22:26:21.615Z,13.95
2023-05-14T22:28:13.141Z,13.97
2023-05-14T22:30:05.987Z,13.95
2023-05-14T22:31:58.021Z,13.96
2023-05-14T22:33:49.709Z,13.97
2023-05-14T22:35:41.468Z,13.97
2023-05-14T22:37:32.838Z,13.96
2023-05-14T22:39:24.185Z,13.95
2023-05-14T22:41:17.579Z,13.95
2023-05-14T22:43:09.221Z,13.94
2023-05-14T22:45:00.518Z,13.94
2023-05-14T22:46:51.974Z,13.92
2023-05-14T22:48:43.276Z,13.93
2023-05-14T22:50:34.653Z,13.92
2023-05-14T22:52:26.550Z,13.91
2023-05-14T22:54:18.499Z,13.91
2023-05-14T22:56:10.029Z,13.89
2023-05-14T22:58:01.624Z,13.88
2023-05-14T22:59:53.524Z,13.87
2023-05-14T23:01:45.290Z,13.85
2023-05-14T23:03:36.920Z,13.82
2023-05-14T23:05:28.817Z,13.81
2023-05-14T23:07:20.414Z,13.79
2023-05-14T23:09:12.334Z,13.77
2023-05-14T23:11:04.022Z,13.75
2023-05-14T23:12:55.839Z,13.74
2023-05-14T23:14:47.204Z,13.72
2023-05-14T23:16:39.579Z,13.70
2023-05-14T23:18:31.269Z,13.67
2023-05-14T23:20:22.992Z,13.66
2023-05-14T23:22:14.255Z,13.65
2023-05-14T23:24:06.446Z,13.64
2023-05-14T23:25:58.171Z,13.61
2023-05-14T23:27:50.241Z,13.60
2023-05-14T23:29:42.052Z,13.59
2023-05-14T23:31:33.643Z,13.59
2023-05-14T23:33:25.310Z,13.58
2023-05-14T23:35:17.130Z,13.58
2023-05-14T23:37:10.125Z,13.56
2023-05-14T23:39:02.028Z,13.56
2023-05-14T23:40:53.618Z,13.56
2023-05-14T23:42:45.566Z,13.56
2023-05-14T23:44:37.219Z,13.54
2023-05-14T23:46:28.921Z,13.51
2023-05-14T23:48:20.503Z,13.50
2023-05-14T23:50:12.325Z,13.49
2023-05-14T23:52:03.575Z,13.48
2023-05-14T23:53:58.449Z,13.47
2023-05-14T23:55:50.114Z,13.47
2023-05-14T23:57:41.428Z,13.45
2023-05-14T23:59:33.195Z,13.46
